Laramie, WY

10:43 AM MST on November 17, 2017 (GMT -0700)
Laramie Regional | | Change Station

Elev 7277 ft 41.31 °N, 105.67 °W | Updated 19 minutes ago

Rain
Rain
35 °F
Feels Like 26 °F
N
13
Wind Variable Wind from NNW

Today
High -- | Low -- °F
--% Chance of Precip.
Yesterday
High -- | Low -- °F
Precip. -- in
Pressure 29.69 in
Visibility 9.0 miles
Clouds Few 500 ft
Mostly Cloudy 2000 ft
Overcast 3200 ft
Windchill 26 °F
Dew Point 35 °F
Humidity 100%
Rainfall 0.03 in
Snow Depth Not available.
6:53 AM 4:41 PM
Waning Crescent, 1% visible
SPECI KLAR 171724Z AUTO 34011KT 9SM -RA FEW005 BKN020 OVC032 02/02 A2969 RMK AO2 P0001 T00170017
Pressure 29.69 in
Visibility 9.0 miles
Clouds Few 500 ft
Mostly Cloudy 2000 ft
Overcast 3200 ft
Windchill 26 °F
Dew Point 35 °F
Humidity 100%
Rainfall 0.03 in
Snow Depth Not available.
6:53 AM 4:41 PM
Waning Crescent, 1% visible
SPECI KLAR 171724Z AUTO 34011KT 9SM -RA FEW005 BKN020 OVC032 02/02 A2969 RMK AO2 P0001 T00170017

Get Severe Weather Alerts

Thanks for signing up!

Be on the lookout for a verification email in your inbox.

You'll start receiving the daily forecast at 6 AM.

×

10-Day Weather Forecast

Almanac

Astronomy

Nov. 17, 2017 Rise Set
Actual Time
Civil Twilight
Nautical Twilight
Astronomical Twilight
Moon
Length of Visible Light
Length of Day
Tomorrow will be .
, % of the Moon is Illuminated

Today's Extremes

State Highs State Lows

Community

WunderPhotos

Category 6

Welcome to Category 6. This is the collective home for Weather Underground's featured writeups by Dr. Jeff Masters (right), Bob Henson (left), Chris Burt, and other regular contributors.

Nearby

Air Quality

  Air Quality AQ Index Pollutant
Not available.

Snow Depth

Station Depth Elevation

Earthquake Activity

City Distance Mag. Time & Date
Minimum magnitude displayed is 2.5.

Coastal Water Temperatures

Place Temperature

Stations

Nearby Weather Stations

Station Location Temp. Windchill Dew Point Humidity Wind Precip. Elev Updated Type
                   

Watches & Warnings

There are currently no watches in effect.